Time;durP1;ratioP1;P1;durP2;ratioP2;P2;SDS_P1;SDS_P2;PMS_P1;PMS_P2;Temp;Humidity;BMP_temperature;BMP_pressure;BME280_temperature;BME280_humidity;BME280_pressure;Samples;Min_cycle;Max_cycle;Signal;HPM_P1;HPM_P2
2021/09/14 00:05:01;;;;;;;39.10;36.57;;;;;;;17.25;100.00;101446.45;1941511;74;31023;-74
2021/09/14 00:10:27;;;;;;;39.97;37.03;;;;;;;17.34;100.00;101433.33;1940831;74;31038;-69
2021/09/14 00:15:52;;;;;;;39.60;36.93;;;;;;;17.24;100.00;101429.38;1941256;74;31142;-73
2021/09/14 00:21:17;;;;;;;39.93;37.10;;;;;;;17.22;100.00;101423.23;1941002;74;31554;-69
2021/09/14 00:26:41;;;;;;;40.93;38.10;;;;;;;17.33;100.00;101412.61;1940891;74;31222;-69
2021/09/14 00:32:07;;;;;;;40.60;37.67;;;;;;;17.21;100.00;101411.16;1941061;74;31532;-69
2021/09/14 00:37:31;;;;;;;40.10;37.17;;;;;;;17.27;100.00;101418.91;1940999;74;33545;-72
2021/09/14 00:42:55;;;;;;;39.70;36.90;;;;;;;17.33;100.00;101419.03;1940981;74;31040;-76
2021/09/14 00:48:20;;;;;;;40.60;37.50;;;;;;;17.26;100.00;101408.24;1941478;74;31525;-73
2021/09/14 00:53:47;;;;;;;40.40;37.50;;;;;;;17.33;100.00;101399.97;1941504;74;31547;-74
2021/09/14 00:59:12;;;;;;;40.97;38.07;;;;;;;17.25;100.00;101390.30;1941433;74;31624;-74
2021/09/14 01:04:36;;;;;;;42.03;39.30;;;;;;;17.29;100.00;101393.56;1941468;74;33490;-73
2021/09/14 01:10:02;;;;;;;40.57;37.57;;;;;;;17.25;100.00;101404.34;1940997;74;31541;-69
2021/09/14 01:15:27;;;;;;;41.57;38.23;;;;;;;17.22;100.00;101396.55;1941085;74;31609;-69
2021/09/14 01:20:51;;;;;;;43.00;39.77;;;;;;;17.24;100.00;101385.86;1941250;74;31042;-73
2021/09/14 01:26:15;;;;;;;42.10;39.10;;;;;;;17.33;100.00;101383.92;1941250;74;31055;-73
2021/09/14 01:31:40;;;;;;;42.13;39.23;;;;;;;17.25;100.00;101386.92;1941268;74;31204;-73
2021/09/14 01:37:06;;;;;;;43.07;40.03;;;;;;;17.30;100.00;101377.55;1940953;74;31107;-77
2021/09/14 01:42:31;;;;;;;44.47;41.27;;;;;;;17.25;100.00;101366.44;1978141;72;30930;-73
2021/09/14 01:47:55;;;;;;;43.80;40.70;;;;;;;17.29;100.00;101351.44;1940779;74;31047;-69
2021/09/14 01:53:21;;;;;;;41.60;38.53;;;;;;;17.29;100.00;101337.97;1941230;74;31549;-73
2021/09/14 01:58:45;;;;;;;43.53;40.33;;;;;;;17.30;100.00;101327.00;1941474;74;31048;-73
2021/09/14 02:04:14;;;;;;;42.20;38.90;;;;;;;17.35;100.00;101326.88;1940906;74;31051;-77
2021/09/14 02:38:35;;;;;;;44.30;40.90;;;;;;;17.34;100.00;101295.73;1940998;74;31508;-69
2021/09/14 03:18:38;;;;;;;44.23;40.60;;;;;;;17.00;100.00;101251.39;1940929;74;33646;-68
2021/09/14 03:24:01;;;;;;;45.40;41.73;;;;;;;16.95;100.00;101250.68;1940780;74;31061;-68
2021/09/14 03:29:26;;;;;;;44.03;40.43;;;;;;;16.78;100.00;101252.77;1941234;74;33026;-73
2021/09/14 03:34:50;;;;;;;45.43;41.83;;;;;;;16.83;100.00;101236.66;1940976;74;31551;-77
2021/09/14 03:40:15;;;;;;;44.60;41.07;;;;;;;16.83;100.00;101237.23;1940851;74;31146;-69
2021/09/14 03:45:39;;;;;;;45.00;41.43;;;;;;;16.88;100.00;101227.86;1940753;74;32981;-69
2021/09/14 03:51:04;;;;;;;45.40;41.90;;;;;;;16.79;100.00;101223.58;1941465;74;31589;-73
2021/09/14 03:56:28;;;;;;;45.33;41.83;;;;;;;16.91;100.00;101216.81;1940809;74;31049;-68
2021/09/14 04:01:55;;;;;;;44.03;40.47;;;;;;;16.99;100.00;101214.64;1887673;74;39581;-69
2021/09/14 04:07:25;;;;;;;45.47;42.03;;;;;;;17.13;100.00;101207.56;1941216;74;33010;-73
2021/09/14 04:12:49;;;;;;;44.87;41.37;;;;;;;17.21;100.00;101203.98;1940721;74;33129;-75
2021/09/14 04:18:14;;;;;;;43.63;40.13;;;;;;;17.30;100.00;101198.67;1941574;74;33502;-73
2021/09/14 04:23:38;;;;;;;42.83;39.30;;;;;;;17.34;100.00;101198.85;1940987;74;31567;-77
2021/09/14 04:29:03;;;;;;;43.87;40.27;;;;;;;17.36;100.00;101200.77;1941656;74;33462;-73
2021/09/14 04:34:28;;;;;;;45.97;42.43;;;;;;;17.36;100.00;101194.33;1940842;74;31301;-69
2021/09/14 04:39:52;;;;;;;45.47;41.60;;;;;;;17.41;100.00;101188.58;1940899;74;31598;-69
2021/09/14 04:45:16;;;;;;;44.97;41.23;;;;;;;17.45;100.00;101183.40;1940799;74;31115;-77
2021/09/14 04:50:41;;;;;;;47.03;43.37;;;;;;;17.41;100.00;101185.20;1941146;74;31053;-69
2021/09/14 04:56:06;;;;;;;46.53;42.67;;;;;;;17.52;100.00;101185.73;1941021;74;31584;-77
2021/09/14 05:01:30;;;;;;;47.37;43.67;;;;;;;17.45;100.00;101185.38;1940812;74;31160;-69
2021/09/14 05:06:54;;;;;;;47.07;43.27;;;;;;;17.46;100.00;101188.41;1941034;74;32961;-77
2021/09/14 05:12:19;;;;;;;48.40;44.30;;;;;;;17.55;100.00;101197.71;1941342;74;31138;-73
2021/09/14 05:17:43;;;;;;;50.20;45.63;;;;;;;17.54;100.00;101193.27;1941225;74;31118;-74
2021/09/14 05:23:13;;;;;;;51.57;47.27;;;;;;;17.58;100.00;101206.95;1940979;74;31567;-69
2021/09/14 05:28:40;;;;;;;52.27;47.53;;;;;;;17.50;100.00;101202.09;1940807;74;31111;-69
2021/09/14 05:34:05;;;;;;;54.23;49.10;;;;;;;17.53;100.00;101212.09;1941519;74;31026;-73
2021/09/14 05:39:29;;;;;;;57.70;51.77;;;;;;;17.55;100.00;101203.33;1941486;74;33523;-73
2021/09/14 05:44:53;;;;;;;68.40;61.07;;;;;;;17.60;100.00;101204.62;1941279;74;33026;-73
2021/09/14 05:50:18;;;;;;;71.87;63.80;;;;;;;17.57;100.00;101209.47;1940972;74;31115;-70
2021/09/14 05:55:43;;;;;;;79.60;71.00;;;;;;;17.63;100.00;101189.35;1941001;74;31590;-78
2021/09/14 06:01:09;;;;;;;93.97;76.13;;;;;;;17.68;100.00;101213.67;1940850;74;31043;-78
2021/09/14 06:06:33;;;;;;;94.40;72.17;;;;;;;17.64;100.00;101200.84;1941361;74;31134;-74
2021/09/14 06:11:58;;;;;;;87.97;72.07;;;;;;;17.66;100.00;101207.56;1941506;74;31047;-74
2021/09/14 06:17:23;;;;;;;93.33;70.53;;;;;;;17.57;100.00;101195.42;1940997;74;31582;-78
2021/09/14 06:22:47;;;;;;;91.67;72.50;;;;;;;17.62;100.00;101205.15;1940815;74;31273;-69
2021/09/14 06:28:11;;;;;;;85.17;68.53;;;;;;;17.59;100.00;101207.17;1941036;74;31097;-68
2021/09/14 06:33:36;;;;;;;87.57;70.43;;;;;;;17.65;100.00;101205.89;1941039;74;33474;-69
2021/09/14 06:39:01;;;;;;;95.17;70.50;;;;;;;17.64;100.00;101200.84;1941103;74;31678;-78
2021/09/14 06:44:25;;;;;;;99.10;70.17;;;;;;;17.63;100.00;101206.78;1941050;74;33606;-70
2021/09/14 06:49:49;;;;;;;98.53;69.23;;;;;;;17.55;100.00;101208.38;1941213;74;33109;-73
2021/09/14 06:55:14;;;;;;;105.77;70.77;;;;;;;17.67;100.00;101201.59;1941453;74;33595;-74
2021/09/14 07:00:38;;;;;;;106.67;70.67;;;;;;;17.63;100.00;101198.35;1941048;74;31505;-69
2021/09/14 07:06:03;;;;;;;105.03;70.90;;;;;;;17.62;100.00;101197.55;1940832;74;31024;-69
2021/09/14 07:11:28;;;;;;;108.63;71.90;;;;;;;17.66;100.00;101185.09;1940950;74;31537;-78
2021/09/14 07:16:52;;;;;;;103.40;73.60;;;;;;;17.61;100.00;101182.41;1940750;74;33075;-73
2021/09/14 07:22:17;;;;;;;110.67;72.53;;;;;;;17.69;100.00;101171.78;1940796;74;31101;-77
2021/09/14 07:27:41;;;;;;;106.47;71.33;;;;;;;17.72;100.00;101171.95;1940777;74;31095;-70
2021/09/14 07:33:07;;;;;;;104.20;70.30;;;;;;;17.89;100.00;101164.72;1940796;74;31031;-77
2021/09/14 07:38:32;;;;;;;116.30;74.27;;;;;;;17.85;100.00;101156.13;1940748;74;33099;-69
2021/09/14 07:43:56;;;;;;;111.47;74.77;;;;;;;17.87;100.00;101151.02;1940928;74;33598;-76
2021/09/14 07:49:20;;;;;;;112.33;72.87;;;;;;;17.89;100.00;101145.05;1940878;74;31229;-69
2021/09/14 07:54:45;;;;;;;111.30;74.10;;;;;;;17.98;100.00;101141.11;1940864;74;31037;-76
2021/09/14 08:00:13;;;;;;;105.93;71.30;;;;;;;18.01;100.00;101137.63;1940992;74;33440;-75
2021/09/14 08:05:39;;;;;;;112.50;74.20;;;;;;;18.09;100.00;101136.84;1940868;74;31106;-76
2021/09/14 08:11:08;;;;;;;110.83;73.60;;;;;;;18.03;100.00;101132.52;1941535;74;31614;-78
2021/09/14 08:16:35;;;;;;;110.57;71.50;;;;;;;18.02;100.00;101123.84;1940958;74;33571;-69
2021/09/14 08:22:00;;;;;;;110.07;72.63;;;;;;;17.97;100.00;101130.22;1941014;74;31118;-78
2021/09/14 08:27:25;;;;;;;106.63;72.00;;;;;;;17.95;100.00;101149.37;1941029;74;31535;-69
2021/09/14 08:32:51;;;;;;;109.10;68.17;;;;;;;18.07;100.00;101153.20;1940846;74;31088;-70
2021/09/14 08:38:15;;;;;;;96.70;69.63;;;;;;;18.08;100.00;101164.70;1940871;74;31043;-70
2021/09/14 08:43:44;;;;;;;96.07;68.23;;;;;;;18.11;100.00;101164.61;1940841;74;31045;-78
2021/09/14 08:49:10;;;;;;;99.80;68.97;;;;;;;18.17;100.00;101170.34;1941581;74;31052;-78
2021/09/14 08:54:35;;;;;;;94.10;68.80;;;;;;;18.19;100.00;101176.45;1940805;74;31042;-70
2021/09/14 09:00:00;;;;;;;93.67;68.43;;;;;;;18.15;100.00;101188.94;1941139;74;31575;-70
2021/09/14 09:05:32;;;;;;;99.50;70.00;;;;;;;18.18;100.00;101200.13;1940925;74;31034;-78
2021/09/14 09:11:03;;;;;;;94.80;66.30;;;;;;;18.23;100.00;101190.70;1940893;74;31177;-68
2021/09/14 09:16:30;;;;;;;90.70;66.47;;;;;;;18.24;100.00;101185.30;1941493;74;31138;-75
2021/09/14 09:21:59;;;;;;;89.53;66.67;;;;;;;18.36;100.00;101177.05;1940974;74;33547;-78
2021/09/14 09:27:26;;;;;;;89.03;66.83;;;;;;;18.41;100.00;101181.11;1940935;74;31103;-77
2021/09/14 09:32:54;;;;;;;85.50;65.63;;;;;;;18.42;100.00;101177.97;1940973;74;31514;-70
2021/09/14 09:38:21;;;;;;;82.27;64.37;;;;;;;18.33;100.00;101185.58;1940982;74;31013;-78
2021/09/14 09:43:47;;;;;;;82.83;63.43;;;;;;;18.41;100.00;101174.91;1940859;74;31195;-79
2021/09/14 09:49:12;;;;;;;75.60;62.47;;;;;;;18.42;100.00;101196.83;1941147;74;31545;-70
2021/09/14 09:54:38;;;;;;;80.13;64.70;;;;;;;18.34;100.00;101193.44;1940991;74;33520;-75
2021/09/14 10:00:09;;;;;;;81.63;65.67;;;;;;;18.45;100.00;101186.31;1941520;74;31034;-72
2021/09/14 10:05:39;;;;;;;81.03;64.23;;;;;;;18.46;100.00;101190.22;1941472;74;31112;-72
2021/09/14 10:11:05;;;;;;;84.10;66.73;;;;;;;18.45;100.00;101191.95;1940992;74;31176;-78
2021/09/14 10:16:35;;;;;;;82.00;65.93;;;;;;;18.33;100.00;101188.39;1941495;74;31525;-73
2021/09/14 10:22:07;;;;;;;83.70;67.07;;;;;;;18.37;100.00;101185.73;1941067;74;31058;-71
2021/09/14 10:27:40;;;;;;;80.10;66.20;;;;;;;18.36;100.00;101200.38;1940807;74;31022;-70
2021/09/14 10:33:29;;;;;;;79.67;62.00;;;;;;;18.39;100.00;101198.91;2009613;71;31051;-77
2021/09/14 10:38:53;;;;;;;89.83;61.47;;;;;;;18.42;100.00;101180.79;1941280;74;31108;-73
2021/09/14 10:44:25;;;;;;;78.37;61.47;;;;;;;18.41;100.00;101181.11;1941462;74;31032;-73
2021/09/14 10:50:03;;;;;;;85.67;65.27;;;;;;;18.38;100.00;101186.83;1941258;74;31152;-75
2021/09/14 10:55:30;;;;;;;78.23;64.63;;;;;;;18.53;100.00;101184.12;1940898;74;31030;-79
2021/09/14 11:00:57;;;;;;;84.10;67.57;;;;;;;18.62;100.00;101179.33;1941492;74;31017;-73
2021/09/14 11:06:23;;;;;;;81.20;66.40;;;;;;;18.68;100.00;101178.01;1940882;74;31032;-68
2021/09/14 11:11:55;;;;;;;85.80;64.57;;;;;;;18.74;100.00;101182.90;1941000;74;31102;-68
2021/09/14 11:17:33;;;;;;;84.17;64.03;;;;;;;18.79;100.00;101196.20;1941199;74;31170;-75
2021/09/14 11:23:08;;;;;;;80.47;67.03;;;;;;;18.67;100.00;101197.45;1941479;74;31031;-74
2021/09/14 11:28:33;;;;;;;75.10;64.93;;;;;;;18.63;100.00;101190.83;1941000;74;33507;-71
2021/09/14 11:33:59;;;;;;;75.00;64.37;;;;;;;18.65;100.00;101186.52;1941351;74;31112;-74
2021/09/14 11:39:23;;;;;;;79.37;62.87;;;;;;;18.75;100.00;101172.70;1940996;74;33547;-70
2021/09/14 11:45:04;;;;;;;70.10;61.43;;;;;;;18.83;100.00;101171.86;1941040;74;31101;-73
2021/09/14 11:50:30;;;;;;;72.20;63.10;;;;;;;18.92;100.00;101176.07;1941101;74;33471;-76
2021/09/14 11:56:02;;;;;;;71.40;62.07;;;;;;;18.98;100.00;101183.20;1941332;74;31110;-75
2021/09/14 12:01:48;;;;;;;76.13;64.50;;;;;;;19.08;100.00;101166.77;2010430;71;30894;-76
2021/09/14 12:07:20;;;;;;;76.93;64.13;;;;;;;19.09;100.00;101166.18;1941320;74;31098;-74
2021/09/14 12:12:52;;;;;;;89.10;71.33;;;;;;;19.01;100.00;101165.05;1941266;74;31572;-71
2021/09/14 12:18:40;;;;;;;93.23;73.30;;;;;;;19.42;100.00;101154.59;2006725;71;31350;-75
2021/09/14 12:24:24;;;;;;;82.80;67.13;;;;;;;19.67;100.00;101156.24;2014937;71;30892;-75
2021/09/14 12:30:11;;;;;;;83.43;68.73;;;;;;;19.63;100.00;101163.15;2010088;71;31582;-69
2021/09/14 12:35:39;;;;;;;79.33;70.90;;;;;;;19.56;100.00;101161.42;1941301;74;33501;-78
2021/09/14 12:41:07;;;;;;;77.73;69.40;;;;;;;19.69;100.00;101155.31;1940827;74;31101;-77
2021/09/14 12:46:55;;;;;;;74.23;66.30;;;;;;;19.84;100.00;101153.34;2009697;71;30863;-79
2021/09/14 12:52:37;;;;;;;76.80;69.30;;;;;;;19.62;100.00;101162.06;2009806;71;33397;-71
2021/09/14 12:58:05;;;;;;;74.63;67.57;;;;;;;19.70;100.00;101149.34;1941000;74;31102;-71
2021/09/14 13:03:31;;;;;;;75.57;68.83;;;;;;;19.65;100.00;101151.52;1941429;74;31025;-75
2021/09/14 13:08:56;;;;;;;74.37;67.37;;;;;;;19.50;100.00;101159.39;1941473;74;33627;-76
2021/09/14 13:20:03;;;;;;;78.20;70.53;;;;;;;19.56;100.00;101172.69;1940981;74;31651;-73
2021/09/14 13:25:26;;;;;;;75.57;68.57;;;;;;;19.73;100.00;101165.56;1940916;74;31033;-70
2021/09/14 13:31:10;;;;;;;73.93;67.60;;;;;;;19.61;100.00;101158.42;2009881;71;31507;-78
2021/09/14 13:36:34;;;;;;;74.63;68.17;;;;;;;19.69;100.00;101152.48;1941355;74;31116;-77
2021/09/14 13:41:59;;;;;;;74.80;68.10;;;;;;;19.65;100.00;101149.53;1940998;74;31559;-71
2021/09/14 13:47:25;;;;;;;68.10;61.53;;;;;;;19.81;100.00;101144.95;1941085;74;31579;-71
2021/09/14 13:52:51;;;;;;;67.77;61.20;;;;;;;20.03;100.00;101152.30;1941131;74;31537;-79
2021/09/14 13:58:15;;;;;;;65.53;59.87;;;;;;;19.80;100.00;101149.55;1940898;74;31019;-78
2021/09/14 14:03:41;;;;;;;65.57;60.43;;;;;;;19.97;100.00;101152.27;1941363;74;31110;-76
2021/09/14 14:09:07;;;;;;;60.43;55.40;;;;;;;20.04;100.00;101151.13;1940952;74;31024;-72
2021/09/14 14:14:31;;;;;;;63.13;58.00;;;;;;;19.82;100.00;101145.21;1940993;74;31598;-76
2021/09/14 14:19:56;;;;;;;62.47;57.57;;;;;;;19.97;100.00;101144.64;1940960;74;31020;-79
2021/09/14 14:25:20;;;;;;;67.53;62.30;;;;;;;20.06;100.00;101144.58;1940859;74;31135;-78
2021/09/14 14:30:45;;;;;;;63.77;58.50;;;;;;;20.11;100.00;101142.95;1941068;74;31528;-78
2021/09/14 14:36:10;;;;;;;59.43;54.63;;;;;;;20.21;100.00;101132.68;1940996;74;31085;-76
2021/09/14 14:41:34;;;;;;;58.47;53.77;;;;;;;20.30;100.00;101127.00;1940823;74;31001;-69
2021/09/14 14:46:59;;;;;;;58.47;53.83;;;;;;;20.08;100.00;101130.12;1940908;74;31095;-79
2021/09/14 14:52:24;;;;;;;58.50;53.67;;;;;;;20.23;100.00;101125.30;1941042;74;31553;-79
2021/09/14 14:57:48;;;;;;;54.93;50.30;;;;;;;20.28;100.00;101127.91;1941027;74;31122;-76
2021/09/14 15:03:13;;;;;;;54.53;49.93;;;;;;;20.32;100.00;101131.12;1941074;74;31103;-70
2021/09/14 15:08:38;;;;;;;54.47;50.17;;;;;;;20.45;100.00;101132.04;1941561;74;31092;-77
2021/09/14 15:14:02;;;;;;;53.87;49.57;;;;;;;20.39;100.00;101126.35;1940895;74;31231;-78
2021/09/14 15:19:27;;;;;;;56.87;52.27;;;;;;;20.10;100.00;101113.11;1940990;74;31227;-71
2021/09/14 15:24:51;;;;;;;54.97;50.70;;;;;;;20.22;100.00;101106.71;1941049;74;32243;-79
2021/09/14 15:30:26;;;;;;;58.00;53.37;;;;;;;20.34;100.00;101102.57;1940880;74;31008;-75
2021/09/14 15:35:53;;;;;;;61.13;56.53;;;;;;;20.61;100.00;101104.83;1941189;74;31467;-75
2021/09/14 15:41:18;;;;;;;64.77;59.90;;;;;;;20.79;100.00;101102.05;1941165;74;31544;-76
2021/09/14 15:46:43;;;;;;;52.80;48.80;;;;;;;20.90;100.00;101096.80;1940964;74;31038;-76
2021/09/14 15:52:08;;;;;;;54.57;50.40;;;;;;;20.97;100.00;101103.27;1941611;74;31480;-77
2021/09/14 15:57:33;;;;;;;57.78;53.08;;;;;;;20.85;100.00;101104.90;1941215;74;31100;-80
2021/09/14 16:03:04;;;;;;;59.50;54.90;;;;;;;20.61;100.00;101099.77;1941210;74;31545;-72
2021/09/14 16:08:32;;;;;;;61.57;56.77;;;;;;;20.28;100.00;101097.68;1941000;74;31075;-69
2021/09/14 16:13:57;;;;;;;62.00;57.00;;;;;;;20.13;100.00;101096.08;1941036;74;31013;-79
2021/09/14 16:19:21;;;;;;;59.45;54.65;;;;;;;20.10;100.00;101098.18;1941038;74;31018;-70
2021/09/14 16:24:45;;;;;;;58.13;53.63;;;;;;;20.16;100.00;101105.25;1940924;74;31024;-78
2021/09/14 16:30:12;;;;;;;58.23;53.43;;;;;;;20.08;100.00;101097.69;1940956;74;31024;-76
2021/09/14 16:35:38;;;;;;;62.13;57.40;;;;;;;20.05;100.00;101094.98;1941080;74;31023;-79
2021/09/14 16:41:03;;;;;;;59.37;54.57;;;;;;;20.00;100.00;101104.47;1941110;74;31196;-71
2021/09/14 16:46:28;;;;;;;58.93;54.50;;;;;;;20.05;100.00;101109.66;1940945;74;31015;-71
2021/09/14 16:51:52;;;;;;;58.37;53.87;;;;;;;19.94;100.00;101118.52;1940942;74;31093;-70
2021/09/14 16:57:17;;;;;;;59.23;54.43;;;;;;;20.06;100.00;101113.56;1941050;74;31195;-77
2021/09/14 17:02:44;;;;;;;58.93;54.17;;;;;;;19.97;100.00;101116.44;1941042;74;31535;-78
2021/09/14 17:08:09;;;;;;;60.13;55.03;;;;;;;19.94;100.00;101117.09;1941563;74;31018;-75
2021/09/14 17:13:33;;;;;;;59.83;55.13;;;;;;;19.91;100.00;101120.61;1941139;74;31508;-76
2021/09/14 17:18:57;;;;;;;60.30;55.50;;;;;;;19.86;100.00;101123.62;1941070;74;31113;-79
2021/09/14 17:24:22;;;;;;;60.77;56.07;;;;;;;19.88;100.00;101119.89;1941070;74;31520;-76
2021/09/14 17:29:46;;;;;;;59.80;55.10;;;;;;;19.91;100.00;101124.84;1941042;74;31023;-71
2021/09/14 17:35:12;;;;;;;59.23;54.67;;;;;;;19.80;100.00;101123.59;1941138;74;31569;-71
2021/09/14 17:40:37;;;;;;;58.37;53.67;;;;;;;19.71;100.00;101128.45;1941596;74;31053;-76
2021/09/14 17:46:01;;;;;;;58.23;53.43;;;;;;;19.78;100.00;101127.91;1941546;74;31076;-75
2021/09/14 17:51:25;;;;;;;57.43;52.90;;;;;;;19.66;100.00;101134.86;1941525;74;31093;-75
2021/09/14 17:56:50;;;;;;;58.07;53.57;;;;;;;19.67;100.00;101133.13;1940908;74;31033;-80
2021/09/14 18:02:14;;;;;;;55.83;51.27;;;;;;;19.84;100.00;101137.83;1941423;74;31018;-76
2021/09/14 18:07:39;;;;;;;56.57;51.90;;;;;;;19.69;100.00;101141.22;1941043;74;31087;-79
2021/09/14 18:13:24;;;;;;;54.83;50.40;;;;;;;19.71;100.00;101143.95;2016498;71;30946;-72
2021/09/14 18:18:54;;;;;;;54.77;50.23;;;;;;;19.65;100.00;101149.53;1941056;74;31145;-78
2021/09/14 18:24:18;;;;;;;56.23;51.67;;;;;;;19.51;100.00;101151.16;1941345;74;31139;-75
2021/09/14 18:29:45;;;;;;;53.97;49.47;;;;;;;19.53;100.00;101162.94;1941291;74;33564;-78
2021/09/14 18:35:11;;;;;;;55.93;50.97;;;;;;;19.55;100.00;101165.42;1940953;74;31118;-70
2021/09/14 18:40:36;;;;;;;53.80;49.27;;;;;;;19.52;100.00;101168.89;1940961;74;31155;-77
2021/09/14 18:46:01;;;;;;;55.37;50.70;;;;;;;19.43;100.00;101169.51;1941165;74;31042;-78
2021/09/14 18:51:31;;;;;;;54.27;49.67;;;;;;;19.53;100.00;101179.84;1940975;74;31035;-77
2021/09/14 18:56:56;;;;;;;53.67;49.17;;;;;;;19.34;100.00;101187.81;1941074;74;31119;-72
2021/09/14 19:02:21;;;;;;;52.93;48.77;;;;;;;19.46;100.00;101193.64;1941363;74;31143;-76
2021/09/14 19:07:45;;;;;;;51.43;47.23;;;;;;;19.38;100.00;101197.86;1941376;74;31605;-78
2021/09/14 19:13:10;;;;;;;51.23;47.13;;;;;;;19.39;100.00;101205.12;1941247;74;31634;-72
2021/09/14 19:18:35;;;;;;;55.13;50.33;;;;;;;19.34;100.00;101201.90;1941472;74;31034;-76
2021/09/14 19:23:59;;;;;;;60.23;54.83;;;;;;;19.41;100.00;101212.67;1941126;74;31030;-73
2021/09/14 19:29:24;;;;;;;61.50;56.00;;;;;;;19.37;100.00;101220.97;1941025;74;31070;-71
2021/09/14 19:34:48;;;;;;;62.10;56.67;;;;;;;19.57;100.00;101227.89;1941014;74;31025;-78
2021/09/14 19:40:13;;;;;;;66.42;60.58;;;;;;;19.37;100.00;101224.37;1925263;74;28915;-79
2021/09/14 19:45:38;;;;;;;62.90;57.50;;;;;;;19.30;100.00;101226.27;1941248;74;31022;-77
2021/09/14 19:51:04;;;;;;;61.50;56.07;;;;;;;19.29;100.00;101229.44;1940998;74;31032;-77
2021/09/14 19:56:28;;;;;;;63.07;57.60;;;;;;;19.27;100.00;101233.99;1941052;74;31107;-77
2021/09/14 20:01:53;;;;;;;59.50;54.43;;;;;;;19.22;100.00;101238.97;1941344;74;31010;-69
2021/09/14 20:07:17;;;;;;;62.73;57.03;;;;;;;19.22;100.00;101243.19;1941186;74;31614;-70
2021/09/14 20:12:42;;;;;;;63.03;57.63;;;;;;;19.17;100.00;101239.16;1940974;74;31028;-74
2021/09/14 20:18:08;;;;;;;62.50;57.03;;;;;;;19.11;100.00;101238.50;1940996;74;31087;-79
2021/09/14 20:23:33;;;;;;;63.83;58.10;;;;;;;19.12;100.00;101233.70;1941141;74;31087;-71
2021/09/14 20:28:58;;;;;;;61.57;56.17;;;;;;;18.96;100.00;101206.62;1940965;74;31116;-70
2021/09/14 20:34:23;;;;;;;61.10;55.73;;;;;;;19.09;100.00;101230.37;1941030;74;31102;-76
2021/09/14 20:39:48;;;;;;;63.33;57.70;;;;;;;19.13;100.00;101233.34;1941130;74;33473;-71
2021/09/14 20:45:14;;;;;;;61.87;56.47;;;;;;;19.04;100.00;101229.13;1941232;74;31083;-70
2021/09/14 20:50:38;;;;;;;62.87;57.27;;;;;;;18.92;100.00;101231.80;1940970;74;30995;-76
2021/09/14 20:56:03;;;;;;;63.67;57.93;;;;;;;18.84;100.00;101227.58;1941236;74;33466;-71
2021/09/14 21:01:31;;;;;;;63.47;57.60;;;;;;;18.78;100.00;101230.33;1941255;74;31446;-70
2021/09/14 21:07:01;;;;;;;63.53;57.60;;;;;;;18.70;100.00;101234.77;1941116;74;31006;-69
2021/09/14 21:12:25;;;;;;;66.73;60.50;;;;;;;18.65;100.00;101243.41;1940995;74;31115;-70
2021/09/14 21:17:51;;;;;;;67.23;60.67;;;;;;;18.61;100.00;101255.88;1941058;74;31087;-70
2021/09/14 21:23:16;;;;;;;70.57;63.27;;;;;;;18.56;100.00;101258.88;1942977;74;31134;-76
2021/09/14 21:28:40;;;;;;;71.73;64.33;;;;;;;18.58;100.00;101255.70;1941215;74;31086;-77
2021/09/14 21:34:04;;;;;;;75.37;66.40;;;;;;;18.59;100.00;101259.61;1941020;74;31124;-71
2021/09/14 21:39:29;;;;;;;76.60;67.43;;;;;;;18.49;100.00;101258.48;1941253;74;31020;-78
2021/09/14 21:44:53;;;;;;;79.93;70.10;;;;;;;18.45;100.00;101253.83;1941293;74;31583;-69
2021/09/14 21:50:18;;;;;;;91.67;72.23;;;;;;;18.38;100.00;101254.91;1941076;74;31097;-78
2021/09/14 21:55:43;;;;;;;93.87;69.33;;;;;;;18.32;100.00;101257.61;1941091;74;31119;-79
2021/09/14 22:01:08;;;;;;;95.07;67.47;;;;;;;18.14;100.00;101264.59;1941087;74;31041;-78
2021/09/14 22:06:32;;;;;;;79.87;65.57;;;;;;;18.04;100.00;101271.94;1941093;74;31012;-77
2021/09/14 22:11:56;;;;;;;76.03;61.47;;;;;;;17.91;100.00;101276.26;1972453;72;30987;-71
2021/09/14 22:17:21;;;;;;;67.00;57.80;;;;;;;17.93;100.00;101279.55;1941188;74;31552;-78
2021/09/14 22:22:45;;;;;;;64.93;57.80;;;;;;;17.80;100.00;101281.92;1941253;74;31039;-71
2021/09/14 22:28:16;;;;;;;65.93;58.40;;;;;;;17.79;100.00;101281.09;1941499;74;31526;-77
2021/09/14 22:33:40;;;;;;;69.57;58.67;;;;;;;17.85;100.00;101279.78;1941235;74;31594;-71
2021/09/14 22:39:04;;;;;;;65.70;58.17;;;;;;;17.87;100.00;101274.68;1941034;74;31082;-71
2021/09/14 22:44:29;;;;;;;67.07;59.90;;;;;;;17.73;100.00;101284.61;1941036;74;31088;-79
2021/09/14 22:49:53;;;;;;;67.33;59.07;;;;;;;17.77;100.00;101289.57;1941040;74;31037;-71
2021/09/14 22:55:18;;;;;;;66.17;59.03;;;;;;;17.88;100.00;101300.23;1941024;74;31094;-79
2021/09/14 23:00:43;;;;;;;62.77;56.43;;;;;;;17.79;100.00;101291.50;1941217;74;31060;-78
2021/09/14 23:06:10;;;;;;;66.03;59.43;;;;;;;17.71;100.00;101286.89;1941280;74;31087;-76
2021/09/14 23:11:35;;;;;;;63.77;56.77;;;;;;;17.61;100.00;101282.14;1940968;74;31073;-71
2021/09/14 23:16:59;;;;;;;64.60;57.77;;;;;;;17.59;100.00;101279.64;1941013;74;31137;-79
2021/09/14 23:22:23;;;;;;;66.40;59.13;;;;;;;17.58;100.00;101271.56;1941109;74;31571;-71
2021/09/14 23:27:48;;;;;;;68.50;61.40;;;;;;;17.82;100.00;101274.81;1941483;74;31559;-76
2021/09/14 23:33:13;;;;;;;67.77;60.87;;;;;;;17.86;100.00;101278.63;1941563;74;31085;-76
2021/09/14 23:38:39;;;;;;;66.27;59.67;;;;;;;17.85;100.00;101273.33;1941515;74;31135;-76
2021/09/14 23:44:03;;;;;;;62.93;56.83;;;;;;;17.81;100.00;101274.55;1940924;74;31027;-71
2021/09/14 23:49:27;;;;;;;64.43;58.13;;;;;;;17.80;100.00;101278.51;1940895;74;31103;-78
2021/09/14 23:54:52;;;;;;;62.70;56.43;;;;;;;17.73;100.00;101283.20;1941294;74;31060;-76
